Time;durP1;ratioP1;P1;durP2;ratioP2;P2;SDS_P1;SDS_P2;PMS_P1;PMS_P2;Temp;Humidity;BMP_temperature;BMP_pressure;BME280_temperature;BME280_humidity;BME280_pressure;Samples;Min_cycle;Max_cycle;Signal;HPM_P1;HPM_P2
2023/07/11 00:02:09;;;;;;;1.35;1.15;;;22.20;60.50;;;;;;6271499;28;20052;-70
2023/07/11 00:05:15;;;;;;;1.05;0.95;;;22.20;60.50;;;;;;6272223;28;20543;-71
2023/07/11 00:08:16;;;;;;;2.28;1.20;;;22.20;60.50;;;;;;6271721;28;20056;-70
2023/07/11 00:11:18;;;;;;;1.05;0.93;;;22.20;60.50;;;;;;6271202;28;20025;-71
2023/07/11 00:14:18;;;;;;;1.67;1.27;;;22.20;60.50;;;;;;6271609;28;20124;-71
2023/07/11 00:17:19;;;;;;;1.60;1.27;;;22.20;60.50;;;;;;6271484;28;20813;-70
2023/07/11 00:20:20;;;;;;;1.67;1.33;;;22.20;60.50;;;;;;6271399;28;20033;-70
2023/07/11 00:23:20;;;;;;;1.40;1.23;;;22.20;60.50;;;;;;6269841;28;20021;-70
2023/07/11 00:26:21;;;;;;;1.20;1.10;;;22.20;60.60;;;;;;6271414;28;20087;-71
2023/07/11 00:29:22;;;;;;;1.50;1.20;;;22.20;60.50;;;;;;6270960;28;20067;-70
2023/07/11 00:32:22;;;;;;;1.40;1.20;;;22.20;60.50;;;;;;6270476;28;20045;-70
2023/07/11 00:35:23;;;;;;;1.20;0.93;;;22.20;60.50;;;;;;6270052;28;20029;-71
2023/07/11 00:38:23;;;;;;;1.10;0.98;;;22.20;60.50;;;;;;6270861;28;20017;-70
2023/07/11 00:41:24;;;;;;;1.20;0.90;;;22.20;60.50;;;;;;6269805;28;20043;-70
2023/07/11 00:44:25;;;;;;;1.40;1.25;;;22.20;60.60;;;;;;6269842;28;20138;-70
2023/07/11 00:47:27;;;;;;;1.25;1.05;;;22.20;60.50;;;;;;6269999;28;20029;-70
2023/07/11 00:50:28;;;;;;;1.40;1.20;;;22.20;60.50;;;;;;6269933;28;20103;-70
2023/07/11 00:53:29;;;;;;;1.50;1.33;;;22.20;60.50;;;;;;6268575;28;20072;-70
2023/07/11 00:56:38;;;;;;;1.60;1.30;;;22.20;60.50;;;;;;6269330;28;20017;-70
2023/07/11 00:59:39;;;;;;;1.20;1.10;;;22.20;60.50;;;;;;6268898;28;20051;-70
2023/07/11 01:02:39;;;;;;;1.27;1.10;;;22.20;60.60;;;;;;6268946;28;20096;-70
2023/07/11 01:05:40;;;;;;;1.38;1.27;;;22.20;60.50;;;;;;6250466;28;20136;-70
2023/07/11 01:08:41;;;;;;;1.20;1.10;;;22.20;60.50;;;;;;6268430;28;20077;-70
2023/07/11 01:12:01;;;;;;;1.30;1.20;;;22.20;60.60;;;;;;6268462;28;20025;-70
2023/07/11 01:15:03;;;;;;;1.77;1.40;;;22.20;60.50;;;;;;6268978;28;20021;-70
2023/07/11 01:18:04;;;;;;;1.10;1.00;;;22.20;60.60;;;;;;6268640;28;20021;-70
2023/07/11 01:21:05;;;;;;;1.30;1.20;;;22.20;60.50;;;;;;6250535;28;20021;-70
2023/07/11 01:24:06;;;;;;;1.20;1.10;;;22.20;60.60;;;;;;6268240;28;20079;-70
2023/07/11 01:27:06;;;;;;;1.35;1.25;;;22.20;60.60;;;;;;6268287;28;20029;-70
2023/07/11 01:30:10;;;;;;;1.60;1.48;;;22.20;60.60;;;;;;6268192;28;20044;-71
2023/07/11 01:33:11;;;;;;;1.45;1.27;;;22.20;60.60;;;;;;6267186;28;20029;-69
2023/07/11 01:36:11;;;;;;;1.65;1.25;;;22.20;60.60;;;;;;6268704;28;20542;-70
2023/07/11 01:39:12;;;;;;;1.50;1.30;;;22.20;60.60;;;;;;6267749;28;20091;-70
2023/07/11 01:42:12;;;;;;;1.30;1.20;;;22.20;60.60;;;;;;6267974;28;20025;-70
2023/07/11 01:45:13;;;;;;;1.60;1.25;;;22.20;60.60;;;;;;6268340;28;20552;-70
2023/07/11 01:48:14;;;;;;;1.75;1.50;;;22.20;60.60;;;;;;6267927;28;20476;-69
2023/07/11 01:51:15;;;;;;;1.77;1.20;;;22.20;60.60;;;;;;6249588;28;20061;-69
2023/07/11 01:54:15;;;;;;;1.25;1.15;;;22.20;60.60;;;;;;6267598;28;20055;-70
2023/07/11 01:57:17;;;;;;;1.40;1.30;;;22.20;60.60;;;;;;6267667;28;20025;-70
2023/07/11 02:00:18;;;;;;;1.60;1.45;;;22.20;60.60;;;;;;6268383;28;20036;-69
2023/07/11 02:03:18;;;;;;;1.90;1.50;;;22.20;60.60;;;;;;6266793;28;20068;-70
2023/07/11 02:06:19;;;;;;;1.55;1.35;;;22.20;60.60;;;;;;6267330;28;20023;-69
2023/07/11 02:09:21;;;;;;;1.40;1.23;;;22.20;60.60;;;;;;6267002;28;20037;-70
2023/07/11 02:12:22;;;;;;;1.67;1.30;;;22.20;60.60;;;;;;6266865;28;20071;-70
2023/07/11 02:15:22;;;;;;;1.50;1.20;;;22.20;60.60;;;;;;6267027;28;20103;-69
2023/07/11 02:18:23;;;;;;;1.10;1.00;;;22.20;60.60;;;;;;6266425;28;20285;-69
2023/07/11 02:21:24;;;;;;;1.30;1.20;;;22.20;60.60;;;;;;6260242;28;20491;-70
2023/07/11 02:24:24;;;;;;;1.52;1.42;;;22.20;60.60;;;;;;6267213;28;20230;-70
2023/07/11 02:27:25;;;;;;;1.58;1.38;;;22.20;60.60;;;;;;6267065;28;20043;-70
2023/07/11 02:30:25;;;;;;;1.83;1.30;;;22.20;60.60;;;;;;6267086;28;20496;-70
2023/07/11 02:33:26;;;;;;;1.30;1.20;;;22.20;60.70;;;;;;6265813;28;20111;-70
2023/07/11 02:36:28;;;;;;;1.75;1.23;;;22.20;60.60;;;;;;6267168;28;20025;-69
2023/07/11 02:39:29;;;;;;;1.50;1.10;;;22.20;60.60;;;;;;6266932;28;20048;-70
2023/07/11 02:42:29;;;;;;;1.77;1.40;;;22.20;60.60;;;;;;6266014;28;20021;-70
2023/07/11 02:45:30;;;;;;;1.48;1.30;;;22.20;60.70;;;;;;6265833;28;20029;-70
2023/07/11 02:48:31;;;;;;;1.55;1.30;;;22.20;60.60;;;;;;6266876;28;20033;-69
2023/07/11 02:51:33;;;;;;;1.58;1.30;;;22.20;60.60;;;;;;6266336;28;20025;-70
2023/07/11 02:54:36;;;;;;;2.25;1.55;;;22.20;60.70;;;;;;6266175;28;20091;-70
2023/07/11 02:57:40;;;;;;;1.70;1.42;;;22.20;60.60;;;;;;6266666;28;20028;-69
2023/07/11 03:00:47;;;;;;;1.40;1.23;;;22.20;60.70;;;;;;6266191;28;20478;-69
2023/07/11 03:03:47;;;;;;;1.65;1.30;;;22.20;60.60;;;;;;6266139;28;20070;-70
2023/07/11 03:06:48;;;;;;;1.50;1.40;;;22.20;60.60;;;;;;6265724;28;20037;-70
2023/07/11 03:09:49;;;;;;;1.45;1.30;;;22.20;60.70;;;;;;6266352;28;20112;-70
2023/07/11 03:12:49;;;;;;;1.40;1.30;;;22.20;60.60;;;;;;6265502;28;20031;-70
2023/07/11 03:15:50;;;;;;;1.80;1.52;;;22.20;60.70;;;;;;6266628;28;20028;-70
2023/07/11 03:18:50;;;;;;;1.33;1.23;;;22.20;60.60;;;;;;6265034;28;20468;-70
2023/07/11 03:21:51;;;;;;;1.85;1.42;;;22.20;60.60;;;;;;6265654;28;20028;-70
2023/07/11 03:24:51;;;;;;;1.73;1.40;;;22.20;60.60;;;;;;6265977;28;20112;-70
2023/07/11 03:27:52;;;;;;;2.08;1.50;;;22.20;60.70;;;;;;6266020;28;20401;-70
2023/07/11 03:30:53;;;;;;;1.55;1.25;;;22.20;60.70;;;;;;6265989;28;20053;-70
2023/07/11 03:33:53;;;;;;;1.75;1.40;;;22.20;60.60;;;;;;6265263;28;20110;-69
2023/07/11 03:36:54;;;;;;;1.38;1.27;;;22.20;60.70;;;;;;6265791;28;20053;-70
2023/07/11 03:39:54;;;;;;;1.50;1.38;;;22.20;60.70;;;;;;6266077;28;20083;-70
2023/07/11 03:42:56;;;;;;;1.15;1.05;;;22.20;60.70;;;;;;6265095;28;20547;-69
2023/07/11 03:45:57;;;;;;;1.30;1.20;;;22.20;60.70;;;;;;6266296;28;20020;-70
2023/07/11 03:49:00;;;;;;;2.30;1.48;;;22.20;60.70;;;;;;6266117;28;20423;-70
2023/07/11 03:52:01;;;;;;;1.55;1.30;;;22.20;60.70;;;;;;6265685;28;20040;-70
2023/07/11 03:55:02;;;;;;;1.75;1.40;;;22.20;60.70;;;;;;6266079;28;20029;-70
2023/07/11 03:58:02;;;;;;;1.40;1.30;;;22.20;60.70;;;;;;6270353;28;20100;-70
2023/07/11 04:01:03;;;;;;;1.75;1.50;;;22.20;60.60;;;;;;6270489;28;20431;-70
2023/07/11 04:04:04;;;;;;;1.85;1.50;;;22.20;60.70;;;;;;6270009;28;20017;-70
2023/07/11 04:07:05;;;;;;;2.25;1.30;;;22.20;60.70;;;;;;6270725;28;20094;-70
2023/07/11 04:10:07;;;;;;;1.60;1.30;;;22.20;60.70;;;;;;6270575;28;20039;-70
2023/07/11 04:13:08;;;;;;;1.85;1.40;;;22.20;60.70;;;;;;6269935;28;20025;-70
2023/07/11 04:16:09;;;;;;;1.52;1.38;;;22.20;61.60;;;;;;6270639;28;20021;-70
2023/07/11 04:19:09;;;;;;;1.60;1.50;;;22.20;60.70;;;;;;6269332;28;20061;-71
2023/07/11 04:22:10;;;;;;;1.30;1.20;;;22.20;60.70;;;;;;6269851;28;20021;-70
2023/07/11 04:25:10;;;;;;;1.67;1.40;;;22.20;60.70;;;;;;6269762;28;20511;-69
2023/07/11 04:28:11;;;;;;;1.70;1.45;;;22.20;60.80;;;;;;6269922;28;20107;-70
2023/07/11 04:31:13;;;;;;;1.83;1.55;;;22.20;60.70;;;;;;6269921;28;20049;-70
2023/07/11 04:34:13;;;;;;;2.35;1.67;;;22.20;60.80;;;;;;6269274;28;20037;-70
2023/07/11 04:37:14;;;;;;;2.17;1.63;;;22.20;60.70;;;;;;6270800;28;20557;-70
2023/07/11 04:40:15;;;;;;;1.52;1.40;;;22.20;60.70;;;;;;6269966;28;20020;-70
2023/07/11 04:43:15;;;;;;;1.95;1.58;;;22.20;60.80;;;;;;6269212;28;20104;-70
2023/07/11 04:46:16;;;;;;;1.70;1.45;;;22.20;60.70;;;;;;6251840;28;20029;-70
2023/07/11 04:49:17;;;;;;;1.65;1.30;;;22.20;60.70;;;;;;6269405;28;20123;-69
2023/07/11 04:52:17;;;;;;;1.58;1.40;;;22.20;60.70;;;;;;6268639;28;20167;-70
2023/07/11 04:55:18;;;;;;;1.65;1.33;;;22.20;60.70;;;;;;6269288;28;20024;-70
2023/07/11 04:58:18;;;;;;;1.55;1.35;;;22.20;60.80;;;;;;6269430;28;20302;-70
2023/07/11 05:01:19;;;;;;;1.77;1.48;;;22.20;60.70;;;;;;6248235;28;20251;-70
2023/07/11 05:04:20;;;;;;;2.17;1.48;;;22.20;60.70;;;;;;6261490;28;20099;-70
2023/07/11 05:07:20;;;;;;;1.65;1.30;;;22.20;60.80;;;;;;6268036;28;20055;-70
2023/07/11 05:10:21;;;;;;;1.40;1.30;;;22.20;60.80;;;;;;6269345;28;20044;-70
2023/07/11 05:13:21;;;;;;;1.85;1.55;;;22.20;60.80;;;;;;6269257;28;20033;-70
2023/07/11 05:16:24;;;;;;;1.85;1.55;;;22.20;60.70;;;;;;6269153;28;20083;-70
2023/07/11 05:19:25;;;;;;;1.80;1.52;;;22.20;60.70;;;;;;6266074;28;20040;-70
2023/07/11 05:22:26;;;;;;;1.88;1.40;;;22.20;60.70;;;;;;6268445;28;20025;-70
2023/07/11 05:25:26;;;;;;;1.92;1.40;;;22.20;60.70;;;;;;6269397;28;20112;-70
2023/07/11 05:28:29;;;;;;;2.00;1.45;;;22.20;60.70;;;;;;6268773;28;20427;-70
2023/07/11 05:31:30;;;;;;;2.13;1.63;;;22.20;60.70;;;;;;6268767;28;20084;-70
2023/07/11 05:34:30;;;;;;;2.33;1.30;;;22.20;60.80;;;;;;6268507;28;20036;-71
2023/07/11 05:37:31;;;;;;;2.67;1.77;;;22.20;60.80;;;;;;6268702;28;20507;-71
2023/07/11 05:40:32;;;;;;;2.60;1.58;;;22.30;61.00;;;;;;6268540;28;20063;-70
2023/07/11 05:43:33;;;;;;;3.33;2.10;;;22.20;60.90;;;;;;6268650;28;20085;-70
2023/07/11 05:46:33;;;;;;;3.70;1.83;;;22.20;60.90;;;;;;6268809;28;20029;-70
2023/07/11 05:49:34;;;;;;;2.65;1.75;;;22.30;61.00;;;;;;6268103;28;20083;-70
2023/07/11 05:52:35;;;;;;;2.95;1.77;;;22.20;60.90;;;;;;6268054;28;20025;-70
2023/07/11 05:55:35;;;;;;;4.55;1.90;;;22.20;61.00;;;;;;6266966;28;20036;-69
2023/07/11 05:58:36;;;;;;;3.88;1.70;;;22.20;61.00;;;;;;6267843;28;20029;-70
2023/07/11 06:01:36;;;;;;;3.95;1.77;;;22.20;61.10;;;;;;6258041;28;20474;-70
2023/07/11 06:04:37;;;;;;;3.10;1.80;;;22.20;61.00;;;;;;6258683;28;20037;-69
2023/07/11 06:07:39;;;;;;;2.60;1.63;;;22.30;61.20;;;;;;6269545;28;20142;-70
2023/07/11 06:10:40;;;;;;;3.17;1.75;;;22.30;61.20;;;;;;6269847;28;20032;-69
2023/07/11 06:13:41;;;;;;;2.63;1.70;;;22.30;61.10;;;;;;6265180;28;20027;-70
2023/07/11 06:16:42;;;;;;;1.70;1.27;;;22.20;61.00;;;;;;6267368;28;20426;-69
2023/07/11 06:19:43;;;;;;;2.97;1.60;;;22.20;61.00;;;;;;6263976;28;20455;-70
2023/07/11 06:22:43;;;;;;;2.15;1.42;;;22.20;60.90;;;;;;6264486;28;20029;-69
2023/07/11 06:25:44;;;;;;;2.40;1.50;;;22.20;60.90;;;;;;6269917;28;20025;-70
2023/07/11 06:28:45;;;;;;;1.90;1.50;;;22.20;60.90;;;;;;6269120;28;20092;-70
2023/07/11 06:31:45;;;;;;;3.05;1.42;;;22.20;60.90;;;;;;6269392;28;20373;-70
2023/07/11 06:34:46;;;;;;;1.85;1.20;;;22.30;61.00;;;;;;6269563;28;20032;-70
2023/07/11 06:37:47;;;;;;;1.67;1.27;;;22.30;61.00;;;;;;6269127;28;20072;-69
2023/07/11 06:40:52;;;;;;;1.85;1.27;;;22.20;60.90;;;;;;6268807;28;20025;-69
2023/07/11 06:43:53;;;;;;;4.63;1.45;;;22.30;61.00;;;;;;6268673;28;20503;-70
2023/07/11 06:46:54;;;;;;;2.20;1.63;;;22.20;60.90;;;;;;6268905;28;20017;-70
2023/07/11 06:49:54;;;;;;;2.65;1.90;;;22.20;60.90;;;;;;6269065;28;20388;-69
2023/07/11 06:52:55;;;;;;;2.47;1.60;;;22.20;60.90;;;;;;6267515;28;20182;-70
2023/07/11 06:55:56;;;;;;;2.20;1.45;;;22.30;61.00;;;;;;6248524;28;20041;-70
2023/07/11 06:58:56;;;;;;;1.77;1.40;;;22.20;60.90;;;;;;6264856;28;20113;-70
2023/07/11 07:01:57;;;;;;;1.63;1.25;;;22.30;60.90;;;;;;6269431;28;20029;-70
2023/07/11 07:04:58;;;;;;;2.83;1.73;;;22.30;61.00;;;;;;6268834;28;20055;-71
2023/07/11 07:07:58;;;;;;;2.70;1.40;;;22.30;61.00;;;;;;6251042;28;20029;-70
2023/07/11 07:10:59;;;;;;;2.60;1.58;;;22.30;61.00;;;;;;6268597;28;20033;-70
2023/07/11 07:14:00;;;;;;;3.83;1.67;;;22.30;61.00;;;;;;6268291;28;20040;-70
2023/07/11 07:17:00;;;;;;;3.65;1.58;;;22.20;60.90;;;;;;6268855;28;20380;-69
2023/07/11 07:20:01;;;;;;;3.17;1.67;;;22.30;61.00;;;;;;6268435;28;20094;-70
2023/07/11 07:23:04;;;;;;;1.58;1.40;;;22.20;60.90;;;;;;6268816;28;20025;-70
2023/07/11 07:26:04;;;;;;;2.10;1.60;;;22.20;60.90;;;;;;6267848;28;20357;-69
2023/07/11 07:29:05;;;;;;;8.68;1.50;;;22.20;60.90;;;;;;6268991;28;20112;-70
2023/07/11 07:32:06;;;;;;;2.83;1.50;;;22.20;60.90;;;;;;6261946;28;20064;-70
2023/07/11 07:35:07;;;;;;;2.00;1.40;;;22.20;61.70;;;;;;6273415;28;20047;-70
2023/07/11 07:38:08;;;;;;;1.95;1.25;;;22.30;61.00;;;;;;6273908;28;20364;-70
2023/07/11 07:41:10;;;;;;;2.42;1.70;;;22.20;61.70;;;;;;6273418;28;20106;-70
2023/07/11 07:44:13;;;;;;;1.45;1.15;;;22.30;60.90;;;;;;6273250;28;20033;-69
2023/07/11 07:47:13;;;;;;;4.22;1.50;;;22.30;60.90;;;;;;6273807;28;20048;-70
2023/07/11 07:50:14;;;;;;;2.20;1.50;;;22.30;61.00;;;;;;6272992;28;20025;-70
2023/07/11 07:53:15;;;;;;;5.65;1.40;;;22.30;61.80;;;;;;6273666;28;20024;-70
2023/07/11 07:56:22;;;;;;;1.75;1.42;;;22.30;60.90;;;;;;6266417;28;20043;-70
2023/07/11 07:59:22;;;;;;;2.40;1.40;;;22.20;60.90;;;;;;6272497;28;20044;-70
2023/07/11 08:02:23;;;;;;;1.60;1.40;;;22.20;60.80;;;;;;6272647;28;20040;-70
2023/07/11 08:05:23;;;;;;;1.48;1.13;;;22.30;60.90;;;;;;6272060;28;20059;-70
2023/07/11 08:08:24;;;;;;;1.98;1.38;;;22.30;61.00;;;;;;6272717;28;20033;-70
2023/07/11 08:11:25;;;;;;;1.27;1.15;;;22.20;60.90;;;;;;6263214;28;20025;-70
2023/07/11 08:14:25;;;;;;;1.70;1.13;;;22.30;60.90;;;;;;6272095;28;20495;-71
2023/07/11 08:17:26;;;;;;;2.50;1.33;;;22.20;60.80;;;;;;6272434;28;20029;-70
2023/07/11 08:20:27;;;;;;;1.63;1.15;;;22.30;60.90;;;;;;6271550;28;20064;-70
2023/07/11 08:23:28;;;;;;;2.63;1.30;;;22.20;60.80;;;;;;6272422;28;20108;-70
2023/07/11 08:26:28;;;;;;;1.77;1.40;;;22.20;60.80;;;;;;6271709;28;20459;-70
2023/07/11 08:29:29;;;;;;;1.55;1.20;;;22.20;60.80;;;;;;6272120;28;20039;-70
2023/07/11 08:32:29;;;;;;;1.95;1.40;;;22.20;61.70;;;;;;6271796;28;20468;-72
2023/07/11 08:35:30;;;;;;;1.75;1.23;;;22.30;60.90;;;;;;6271394;28;20083;-72
2023/07/11 08:38:31;;;;;;;1.42;1.25;;;22.20;60.80;;;;;;6271802;28;20021;-72
2023/07/11 08:41:45;;;;;;;1.73;1.10;;;22.20;60.80;;;;;;6271157;28;20032;-70
2023/07/11 08:44:51;;;;;;;1.30;1.20;;;22.30;60.90;;;;;;6270934;28;20040;-70
2023/07/11 08:48:13;;;;;;;1.80;1.20;;;22.30;60.90;;;;;;6271344;28;20025;-70
2023/07/11 08:51:22;;;;;;;1.70;1.20;;;22.30;61.70;;;;;;6270480;28;20495;-72
2023/07/11 08:54:29;;;;;;;2.80;1.40;;;22.30;60.90;;;;;;6268382;28;20480;-70
2023/07/11 08:57:35;;;;;;;1.42;1.10;;;22.30;60.90;;;;;;6265532;28;20105;-70
2023/07/11 09:00:36;;;;;;;2.28;1.40;;;22.30;60.90;;;;;;6264746;28;20033;-70
2023/07/11 09:03:46;;;;;;;1.48;1.00;;;22.20;60.80;;;;;;6260391;28;20014;-70
2023/07/11 09:06:57;;;;;;;3.30;1.13;;;22.20;60.80;;;;;;6270563;28;20522;-70
2023/07/11 09:09:57;;;;;;;1.55;0.90;;;22.20;60.80;;;;;;6261099;28;20087;-70
2023/07/11 09:13:17;;;;;;;1.13;1.02;;;22.30;60.90;;;;;;6270767;28;20033;-70
2023/07/11 09:16:42;;;;;;;1.75;1.15;;;22.30;60.90;;;;;;6270278;28;20383;-70
2023/07/11 09:19:49;;;;;;;1.40;1.20;;;22.20;60.80;;;;;;6270785;28;20498;-70
2023/07/11 09:23:30;;;;;;;1.45;1.27;;;22.20;60.80;;;;;;6270733;28;20029;-70
2023/07/11 09:26:47;;;;;;;1.48;1.20;;;22.20;60.70;;;;;;6270138;28;20051;-71
2023/07/11 09:29:49;;;;;;;2.28;1.20;;;22.20;60.70;;;;;;6270809;28;20028;-70
2023/07/11 09:32:49;;;;;;;1.40;1.00;;;22.30;60.80;;;;;;6270006;28;20112;-70
2023/07/11 09:35:51;;;;;;;0.82;0.80;;;22.20;60.70;;;;;;6270617;28;20024;-70
2023/07/11 09:39:00;;;;;;;1.13;1.02;;;22.30;60.80;;;;;;6266437;28;20027;-70
2023/07/11 09:42:11;;;;;;;0.90;0.80;;;22.20;60.70;;;;;;6269534;28;20021;-70
2023/07/11 09:45:18;;;;;;;1.15;1.05;;;22.20;60.70;;;;;;6269962;28;20021;-69
2023/07/11 09:48:26;;;;;;;1.42;0.95;;;22.30;60.80;;;;;;6269959;28;20039;-70
2023/07/11 09:51:47;;;;;;;1.60;1.10;;;22.20;60.70;;;;;;6269896;28;20484;-71
2023/07/11 09:54:47;;;;;;;1.42;1.00;;;22.20;60.70;;;;;;6258347;28;20045;-71
2023/07/11 09:57:50;;;;;;;2.08;1.20;;;22.20;60.70;;;;;;6258568;28;20032;-70
2023/07/11 10:00:52;;;;;;;1.42;1.15;;;22.30;60.80;;;;;;6244096;28;20029;-71
2023/07/11 10:03:55;;;;;;;1.08;0.88;;;22.30;60.80;;;;;;6240788;28;20361;-71
2023/07/11 10:07:02;;;;;;;1.35;0.88;;;22.30;60.80;;;;;;6251095;28;20025;-71
2023/07/11 10:10:03;;;;;;;1.42;0.90;;;22.20;60.60;;;;;;6260208;28;20114;-69
2023/07/11 10:13:11;;;;;;;1.20;1.02;;;22.30;60.80;;;;;;6269300;28;20511;-70
2023/07/11 10:16:19;;;;;;;1.00;0.90;;;22.30;60.70;;;;;;6269404;28;20032;-70
2023/07/11 10:19:20;;;;;;;1.33;1.10;;;22.30;60.60;;;;;;6269863;28;20025;-70
2023/07/11 10:22:23;;;;;;;2.38;1.02;;;22.40;60.60;;;;;;6268525;28;20087;-70
2023/07/11 10:25:27;;;;;;;2.88;0.90;;;22.40;60.80;;;;;;6269579;28;20029;-70
2023/07/11 10:28:33;;;;;;;1.20;1.02;;;22.40;61.00;;;;;;6268533;28;20060;-70
2023/07/11 10:31:39;;;;;;;0.80;0.70;;;22.40;61.10;;;;;;6268804;28;20053;-71
2023/07/11 10:34:53;;;;;;;1.40;1.08;;;22.40;60.90;;;;;;6269097;28;20025;-70
2023/07/11 10:38:00;;;;;;;1.02;0.93;;;22.40;60.60;;;;;;6266705;28;20032;-70
2023/07/11 10:41:03;;;;;;;1.38;1.10;;;22.40;60.80;;;;;;6256661;28;20025;-70
2023/07/11 10:44:11;;;;;;;1.40;1.08;;;22.40;60.80;;;;;;6268136;28;20032;-71
2023/07/11 10:47:12;;;;;;;1.17;0.80;;;22.40;60.90;;;;;;6267966;28;20045;-70
2023/07/11 10:50:31;;;;;;;1.27;1.00;;;22.30;60.80;;;;;;6267718;28;20033;-71
2023/07/11 10:53:53;;;;;;;1.55;1.10;;;22.30;60.80;;;;;;6267962;28;20502;-71
2023/07/11 10:57:03;;;;;;;2.45;0.98;;;22.30;60.80;;;;;;6243958;28;20033;-70
2023/07/11 11:00:08;;;;;;;1.30;1.00;;;22.30;60.80;;;;;;6267144;28;20048;-71
2023/07/11 11:03:30;;;;;;;1.95;0.85;;;22.30;60.80;;;;;;6267790;28;20039;-70
2023/07/11 11:06:40;;;;;;;1.05;0.80;;;22.30;60.80;;;;;;6267227;28;20024;-70
2023/07/11 11:10:06;;;;;;;1.23;0.95;;;22.30;60.90;;;;;;6267311;28;20033;-70
2023/07/11 11:13:31;;;;;;;1.10;0.80;;;22.30;60.90;;;;;;6267489;28;20025;-71
2023/07/11 11:17:06;;;;;;;1.20;0.85;;;22.30;60.80;;;;;;6267785;28;20032;-70
2023/07/11 11:20:27;;;;;;;1.17;0.90;;;22.30;60.90;;;;;;6198383;28;20044;-70
2023/07/11 11:23:31;;;;;;;0.85;0.75;;;22.30;60.80;;;;;;6267812;28;20094;-70
2023/07/11 11:26:50;;;;;;;1.08;0.90;;;22.30;60.90;;;;;;6267962;28;20527;-70
2023/07/11 11:30:06;;;;;;;1.65;1.00;;;22.30;60.80;;;;;;6266441;28;20053;-71
2023/07/11 11:33:13;;;;;;;0.80;0.80;;;22.30;60.80;;;;;;6267222;28;20133;-70
2023/07/11 11:36:39;;;;;;;0.90;0.70;;;22.30;60.90;;;;;;6267340;28;20025;-70
2023/07/11 11:40:17;;;;;;;0.80;0.80;;;22.30;60.80;;;;;;6266650;28;20025;-70
2023/07/11 11:43:19;;;;;;;1.30;0.70;;;22.30;60.80;;;;;;6253617;28;20514;-70
2023/07/11 11:46:21;;;;;;;1.30;0.80;;;22.30;60.80;;;;;;6267727;28;20120;-71
2023/07/11 11:49:25;;;;;;;1.48;1.20;;;22.30;60.80;;;;;;6267113;28;20036;-70
2023/07/11 11:52:31;;;;;;;1.15;0.95;;;22.30;60.90;;;;;;6267294;28;20036;-71
2023/07/11 11:55:31;;;;;;;1.00;0.70;;;22.30;60.80;;;;;;6266770;28;20033;-70
2023/07/11 11:58:34;;;;;;;1.10;0.90;;;22.30;60.80;;;;;;6266755;28;20383;-71
2023/07/11 12:01:53;;;;;;;1.02;0.80;;;22.30;60.80;;;;;;6267130;28;20083;-70
2023/07/11 12:05:09;;;;;;;0.80;0.70;;;22.30;60.80;;;;;;6266536;28;20024;-71
2023/07/11 12:08:36;;;;;;;1.30;0.90;;;22.30;60.90;;;;;;6267197;28;20447;-71
2023/07/11 12:11:44;;;;;;;0.85;0.85;;;22.30;60.80;;;;;;6263532;28;20506;-70
2023/07/11 12:14:59;;;;;;;0.80;0.80;;;22.30;60.80;;;;;;6266154;28;20053;-71
2023/07/11 12:18:25;;;;;;;1.17;1.00;;;22.30;60.90;;;;;;6256065;28;20108;-70
2023/07/11 12:21:41;;;;;;;0.95;0.90;;;22.30;60.80;;;;;;6270265;28;20051;-70
2023/07/11 12:24:42;;;;;;;0.68;0.60;;;22.30;60.80;;;;;;6270877;28;20519;-70
2023/07/11 12:28:00;;;;;;;1.60;0.70;;;22.20;60.70;;;;;;6271186;28;20020;-71
2023/07/11 12:31:17;;;;;;;0.90;0.80;;;22.30;60.90;;;;;;6260282;28;20519;-71
2023/07/11 12:34:19;;;;;;;1.23;0.90;;;22.30;60.80;;;;;;6271146;28;20044;-71
2023/07/11 12:37:22;;;;;;;1.10;0.70;;;22.30;60.80;;;;;;6246726;28;20039;-70
2023/07/11 12:40:36;;;;;;;1.25;0.93;;;22.20;60.70;;;;;;6257382;28;20025;-71
2023/07/11 12:43:39;;;;;;;0.75;0.75;;;22.30;60.90;;;;;;6271221;28;20082;-70
2023/07/11 12:46:45;;;;;;;0.80;0.60;;;22.30;60.90;;;;;;6270563;28;20021;-70
2023/07/11 12:49:48;;;;;;;1.38;0.90;;;22.30;60.80;;;;;;6270560;28;20043;-71
2023/07/11 12:53:00;;;;;;;1.27;1.00;;;22.30;60.80;;;;;;6271091;28;20021;-71
2023/07/11 12:56:00;;;;;;;0.80;0.68;;;22.30;60.80;;;;;;6270363;28;20025;-70
2023/07/11 12:59:01;;;;;;;1.02;0.73;;;22.30;60.80;;;;;;6271203;28;20545;-71
2023/07/11 13:02:05;;;;;;;1.27;0.65;;;22.20;60.60;;;;;;6270127;28;20025;-71
2023/07/11 13:05:11;;;;;;;2.05;0.80;;;22.30;60.80;;;;;;6270476;28;20049;-71
2023/07/11 13:08:13;;;;;;;1.05;0.90;;;22.30;60.80;;;;;;6270800;28;20025;-70
2023/07/11 13:11:28;;;;;;;1.88;0.70;;;22.20;60.60;;;;;;6269621;28;20111;-70
2023/07/11 13:14:28;;;;;;;1.50;0.90;;;22.30;60.80;;;;;;6257879;28;20419;-70
2023/07/11 13:17:29;;;;;;;0.60;0.60;;;22.30;60.80;;;;;;6269699;28;20071;-70
2023/07/11 13:20:35;;;;;;;0.90;0.65;;;22.20;60.70;;;;;;6269285;28;20017;-70
2023/07/11 13:23:38;;;;;;;1.27;1.08;;;22.30;60.80;;;;;;6268660;28;20242;-71
2023/07/11 13:26:39;;;;;;;1.08;0.80;;;22.20;60.60;;;;;;6269806;28;20483;-70
2023/07/11 13:29:40;;;;;;;1.05;0.75;;;22.30;60.80;;;;;;6268921;28;20043;-71
2023/07/11 13:32:40;;;;;;;0.80;0.75;;;22.30;60.80;;;;;;6269693;28;20052;-70
2023/07/11 13:35:50;;;;;;;1.48;1.00;;;22.30;60.80;;;;;;6269652;28;20383;-70
2023/07/11 13:38:55;;;;;;;1.40;0.85;;;22.30;60.80;;;;;;6270069;28;20152;-70
2023/07/11 13:41:58;;;;;;;1.02;0.80;;;22.30;60.80;;;;;;6252303;28;20036;-70
2023/07/11 13:45:14;;;;;;;1.20;0.90;;;22.30;60.80;;;;;;6269759;28;20025;-70
2023/07/11 13:48:22;;;;;;;1.25;0.90;;;22.20;60.70;;;;;;6268722;28;20036;-70
2023/07/11 13:51:33;;;;;;;1.05;0.90;;;22.30;60.80;;;;;;6268643;28;20032;-70
2023/07/11 13:54:37;;;;;;;0.80;0.77;;;22.30;60.80;;;;;;6264471;28;20025;-70
2023/07/11 13:57:38;;;;;;;0.98;0.77;;;22.30;60.80;;;;;;6262991;28;20503;-71
2023/07/11 14:00:45;;;;;;;0.73;0.73;;;22.30;60.80;;;;;;6268711;28;20025;-70
2023/07/11 14:03:47;;;;;;;1.08;0.90;;;22.30;60.80;;;;;;6244802;28;20029;-71
2023/07/11 14:06:47;;;;;;;1.27;0.80;;;22.30;60.80;;;;;;6266096;28;20062;-71
2023/07/11 14:09:48;;;;;;;1.23;1.00;;;22.30;60.80;;;;;;6256704;28;20495;-70
2023/07/11 14:12:49;;;;;;;1.33;1.00;;;22.30;60.80;;;;;;6261386;28;20386;-70
2023/07/11 14:15:51;;;;;;;1.02;0.73;;;22.30;60.70;;;;;;6268397;28;20036;-70
2023/07/11 14:18:54;;;;;;;0.80;0.75;;;22.30;60.80;;;;;;6268990;28;20025;-72
2023/07/11 14:21:55;;;;;;;1.05;0.80;;;22.30;60.80;;;;;;6267602;28;20082;-70
2023/07/11 14:24:55;;;;;;;0.80;0.80;;;22.20;60.60;;;;;;6267896;28;20021;-70
2023/07/11 14:27:56;;;;;;;0.90;0.80;;;22.30;61.60;;;;;;6268418;28;20395;-70
2023/07/11 14:31:00;;;;;;;0.70;0.50;;;22.20;60.60;;;;;;6267806;28;20132;-72
2023/07/11 14:34:01;;;;;;;0.70;0.60;;;22.20;60.60;;;;;;6268895;28;20029;-70
2023/07/11 14:37:02;;;;;;;0.80;0.65;;;22.30;60.80;;;;;;6268179;28;20025;-70
2023/07/11 14:40:03;;;;;;;0.82;0.70;;;22.20;60.60;;;;;;6267990;28;20024;-70
2023/07/11 14:43:23;;;;;;;1.05;0.77;;;22.20;60.60;;;;;;6267422;28;20028;-70
2023/07/11 14:46:24;;;;;;;0.70;0.68;;;22.30;61.60;;;;;;6268459;28;20025;-70
2023/07/11 14:49:25;;;;;;;0.82;0.70;;;22.30;60.80;;;;;;6267630;28;20430;-70
2023/07/11 14:52:31;;;;;;;0.65;0.65;;;22.30;60.70;;;;;;6267941;28;20021;-70
2023/07/11 14:55:31;;;;;;;1.15;0.80;;;22.30;60.70;;;;;;6267217;28;20319;-70
2023/07/11 14:58:32;;;;;;;0.80;0.80;;;22.30;60.80;;;;;;6267505;28;20029;-70
2023/07/11 15:01:33;;;;;;;0.63;0.63;;;22.20;60.60;;;;;;6267694;28;20037;-70
2023/07/11 15:04:35;;;;;;;1.23;1.00;;;22.20;60.70;;;;;;6267372;28;20070;-70
2023/07/11 15:07:36;;;;;;;1.38;0.90;;;22.30;60.80;;;;;;6268125;28;20021;-70
2023/07/11 15:10:36;;;;;;;1.05;0.80;;;22.30;60.70;;;;;;6267325;28;20075;-70
2023/07/11 15:13:38;;;;;;;1.30;0.85;;;22.20;60.60;;;;;;6267890;28;20032;-70
2023/07/11 15:16:38;;;;;;;0.80;0.70;;;22.30;60.80;;;;;;6249962;28;20047;-72
2023/07/11 15:19:39;;;;;;;1.17;0.88;;;22.30;60.80;;;;;;6267576;28;20033;-71
2023/07/11 15:22:42;;;;;;;0.77;0.60;;;22.30;60.70;;;;;;6267023;28;20037;-70
2023/07/11 15:25:45;;;;;;;1.63;1.08;;;22.30;60.70;;;;;;6258668;28;20024;-70
2023/07/11 15:28:46;;;;;;;2.40;0.90;;;22.30;60.80;;;;;;6263765;28;20052;-70
2023/07/11 15:31:48;;;;;;;0.85;0.75;;;22.30;60.80;;;;;;6264411;28;20124;-70
2023/07/11 15:34:48;;;;;;;0.80;0.80;;;22.30;60.70;;;;;;6264059;28;20025;-70
2023/07/11 15:37:51;;;;;;;0.88;0.80;;;22.20;60.60;;;;;;6263968;28;20404;-70
2023/07/11 15:40:53;;;;;;;0.80;0.80;;;22.30;60.70;;;;;;6263971;28;20017;-70
2023/07/11 15:43:54;;;;;;;1.27;0.98;;;22.20;60.60;;;;;;6263818;28;20434;-70
2023/07/11 15:46:56;;;;;;;1.27;0.85;;;22.30;60.80;;;;;;6251672;28;20028;-70
2023/07/11 15:49:57;;;;;;;0.77;0.70;;;22.30;60.70;;;;;;6262726;28;20044;-70
2023/07/11 15:52:59;;;;;;;0.90;0.80;;;22.30;60.70;;;;;;6266693;28;20436;-70
2023/07/11 15:55:59;;;;;;;0.80;0.70;;;22.20;60.60;;;;;;6267741;28;20429;-69
2023/07/11 15:59:00;;;;;;;1.27;0.70;;;22.20;60.60;;;;;;6268505;28;20123;-70